sensor_id;sensor_type;location;lat;lon;timestamp;P1;durP1;ratioP1;P2;durP2;ratioP2
19919;SDS011;10122;50.074;19.920;2024-03-25T00:01:30;9.07;;;8.25;;
19919;SDS011;10122;50.074;19.920;2024-03-25T00:03:56;10.43;;;8.20;;
19919;SDS011;10122;50.074;19.920;2024-03-25T00:06:21;10.93;;;8.80;;
19919;SDS011;10122;50.074;19.920;2024-03-25T00:08:47;9.82;;;8.82;;
19919;SDS011;10122;50.074;19.920;2024-03-25T00:11:13;10.18;;;8.25;;
19919;SDS011;10122;50.074;19.920;2024-03-25T00:13:38;9.05;;;8.13;;
19919;SDS011;10122;50.074;19.920;2024-03-25T00:16:04;9.23;;;8.32;;
19919;SDS011;10122;50.074;19.920;2024-03-25T00:18:31;9.77;;;8.60;;
19919;SDS011;10122;50.074;19.920;2024-03-25T00:20:57;13.40;;;8.27;;
19919;SDS011;10122;50.074;19.920;2024-03-25T00:23:23;9.02;;;8.10;;
19919;SDS011;10122;50.074;19.920;2024-03-25T00:25:49;8.73;;;8.02;;
19919;SDS011;10122;50.074;19.920;2024-03-25T00:28:15;10.52;;;8.02;;
19919;SDS011;10122;50.074;19.920;2024-03-25T00:33:25;10.10;;;8.05;;
19919;SDS011;10122;50.074;19.920;2024-03-25T00:35:50;8.93;;;8.13;;
19919;SDS011;10122;50.074;19.920;2024-03-25T00:38:16;9.50;;;8.55;;
19919;SDS011;10122;50.074;19.920;2024-03-25T00:40:42;11.80;;;9.07;;
19919;SDS011;10122;50.074;19.920;2024-03-25T00:43:07;12.82;;;9.30;;
19919;SDS011;10122;50.074;19.920;2024-03-25T00:45:33;12.82;;;8.98;;
19919;SDS011;10122;50.074;19.920;2024-03-25T00:47:59;12.13;;;9.27;;
19919;SDS011;10122;50.074;19.920;2024-03-25T00:50:25;11.80;;;8.75;;
19919;SDS011;10122;50.074;19.920;2024-03-25T00:52:51;13.27;;;9.15;;
19919;SDS011;10122;50.074;19.920;2024-03-25T00:55:17;10.50;;;8.63;;
19919;SDS011;10122;50.074;19.920;2024-03-25T00:57:42;12.07;;;8.80;;
19919;SDS011;10122;50.074;19.920;2024-03-25T01:00:08;11.00;;;8.77;;
19919;SDS011;10122;50.074;19.920;2024-03-25T01:02:35;10.63;;;8.70;;
19919;SDS011;10122;50.074;19.920;2024-03-25T01:05:00;11.40;;;8.93;;
19919;SDS011;10122;50.074;19.920;2024-03-25T01:07:26;13.10;;;8.88;;
19919;SDS011;10122;50.074;19.920;2024-03-25T01:09:52;9.20;;;8.32;;
19919;SDS011;10122;50.074;19.920;2024-03-25T01:12:17;9.90;;;8.57;;
19919;SDS011;10122;50.074;19.920;2024-03-25T01:14:43;11.60;;;8.90;;
19919;SDS011;10122;50.074;19.920;2024-03-25T01:17:08;11.32;;;8.57;;
19919;SDS011;10122;50.074;19.920;2024-03-25T01:19:34;16.38;;;8.77;;
19919;SDS011;10122;50.074;19.920;2024-03-25T01:22:00;11.10;;;8.60;;
19919;SDS011;10122;50.074;19.920;2024-03-25T01:24:25;9.93;;;8.80;;
19919;SDS011;10122;50.074;19.920;2024-03-25T01:26:51;12.80;;;9.35;;
19919;SDS011;10122;50.074;19.920;2024-03-25T01:29:17;13.07;;;9.20;;
19919;SDS011;10122;50.074;19.920;2024-03-25T01:31:43;13.00;;;9.18;;
19919;SDS011;10122;50.074;19.920;2024-03-25T01:34:09;14.95;;;9.40;;
19919;SDS011;10122;50.074;19.920;2024-03-25T01:36:35;11.50;;;9.15;;
19919;SDS011;10122;50.074;19.920;2024-03-25T01:39:01;13.73;;;9.65;;
19919;SDS011;10122;50.074;19.920;2024-03-25T01:41:27;14.13;;;10.25;;
19919;SDS011;10122;50.074;19.920;2024-03-25T01:43:54;15.40;;;10.32;;
19919;SDS011;10122;50.074;19.920;2024-03-25T01:46:19;13.95;;;10.07;;
19919;SDS011;10122;50.074;19.920;2024-03-25T01:48:46;12.23;;;9.40;;
19919;SDS011;10122;50.074;19.920;2024-03-25T01:51:13;11.15;;;9.20;;
19919;SDS011;10122;50.074;19.920;2024-03-25T01:53:40;10.05;;;9.00;;
19919;SDS011;10122;50.074;19.920;2024-03-25T01:56:07;10.70;;;9.18;;
19919;SDS011;10122;50.074;19.920;2024-03-25T01:58:33;11.88;;;8.95;;
19919;SDS011;10122;50.074;19.920;2024-03-25T02:00:59;9.48;;;8.48;;
19919;SDS011;10122;50.074;19.920;2024-03-25T02:03:28;10.98;;;8.60;;
19919;SDS011;10122;50.074;19.920;2024-03-25T02:05:55;8.93;;;8.13;;
19919;SDS011;10122;50.074;19.920;2024-03-25T02:08:25;10.32;;;8.35;;
19919;SDS011;10122;50.074;19.920;2024-03-25T02:10:52;9.23;;;8.20;;
19919;SDS011;10122;50.074;19.920;2024-03-25T02:13:21;9.00;;;8.20;;
19919;SDS011;10122;50.074;19.920;2024-03-25T02:15:47;9.60;;;8.60;;
19919;SDS011;10122;50.074;19.920;2024-03-25T02:18:16;9.95;;;8.23;;
19919;SDS011;10122;50.074;19.920;2024-03-25T02:20:42;9.18;;;8.32;;
19919;SDS011;10122;50.074;19.920;2024-03-25T02:23:08;10.40;;;8.55;;
19919;SDS011;10122;50.074;19.920;2024-03-25T02:25:35;9.13;;;7.97;;
19919;SDS011;10122;50.074;19.920;2024-03-25T02:28:04;9.15;;;8.25;;
19919;SDS011;10122;50.074;19.920;2024-03-25T02:30:29;9.27;;;8.40;;
19919;SDS011;10122;50.074;19.920;2024-03-25T02:32:55;9.52;;;8.63;;
19919;SDS011;10122;50.074;19.920;2024-03-25T02:35:21;9.82;;;8.75;;
19919;SDS011;10122;50.074;19.920;2024-03-25T02:37:47;10.15;;;8.60;;
19919;SDS011;10122;50.074;19.920;2024-03-25T02:40:15;9.13;;;8.10;;
19919;SDS011;10122;50.074;19.920;2024-03-25T02:42:41;9.23;;;8.38;;
19919;SDS011;10122;50.074;19.920;2024-03-25T02:45:07;9.80;;;8.77;;
19919;SDS011;10122;50.074;19.920;2024-03-25T02:47:33;11.52;;;8.57;;
19919;SDS011;10122;50.074;19.920;2024-03-25T02:49:58;9.43;;;8.52;;
19919;SDS011;10122;50.074;19.920;2024-03-25T02:52:24;8.85;;;8.05;;
19919;SDS011;10122;50.074;19.920;2024-03-25T02:54:50;8.88;;;8.02;;
19919;SDS011;10122;50.074;19.920;2024-03-25T02:57:16;8.32;;;7.60;;
19919;SDS011;10122;50.074;19.920;2024-03-25T02:59:42;8.70;;;8.00;;
19919;SDS011;10122;50.074;19.920;2024-03-25T03:02:07;8.75;;;7.95;;
19919;SDS011;10122;50.074;19.920;2024-03-25T03:04:33;8.15;;;7.50;;
19919;SDS011;10122;50.074;19.920;2024-03-25T03:06:58;8.73;;;7.90;;
19919;SDS011;10122;50.074;19.920;2024-03-25T03:09:24;8.85;;;8.13;;
19919;SDS011;10122;50.074;19.920;2024-03-25T03:11:50;8.90;;;7.90;;
19919;SDS011;10122;50.074;19.920;2024-03-25T03:14:15;8.57;;;7.88;;
19919;SDS011;10122;50.074;19.920;2024-03-25T03:16:41;14.13;;;8.43;;
19919;SDS011;10122;50.074;19.920;2024-03-25T03:19:07;9.18;;;8.00;;
19919;SDS011;10122;50.074;19.920;2024-03-25T03:21:33;8.48;;;7.75;;
19919;SDS011;10122;50.074;19.920;2024-03-25T03:23:58;9.13;;;8.30;;
19919;SDS011;10122;50.074;19.920;2024-03-25T03:26:24;8.93;;;8.13;;
19919;SDS011;10122;50.074;19.920;2024-03-25T03:28:55;9.63;;;8.20;;
19919;SDS011;10122;50.074;19.920;2024-03-25T03:31:22;10.02;;;8.30;;
19919;SDS011;10122;50.074;19.920;2024-03-25T03:33:48;8.75;;;7.90;;
19919;SDS011;10122;50.074;19.920;2024-03-25T03:36:18;8.82;;;7.97;;
19919;SDS011;10122;50.074;19.920;2024-03-25T03:38:44;9.05;;;8.15;;
19919;SDS011;10122;50.074;19.920;2024-03-25T03:41:10;9.23;;;8.43;;
19919;SDS011;10122;50.074;19.920;2024-03-25T03:43:36;9.13;;;8.32;;
19919;SDS011;10122;50.074;19.920;2024-03-25T03:46:02;10.88;;;8.45;;
19919;SDS011;10122;50.074;19.920;2024-03-25T03:48:28;9.77;;;8.45;;
19919;SDS011;10122;50.074;19.920;2024-03-25T03:50:54;12.05;;;8.23;;
19919;SDS011;10122;50.074;19.920;2024-03-25T03:53:20;10.50;;;8.45;;
19919;SDS011;10122;50.074;19.920;2024-03-25T03:55:55;10.02;;;8.30;;
19919;SDS011;10122;50.074;19.920;2024-03-25T03:58:27;9.07;;;8.13;;
19919;SDS011;10122;50.074;19.920;2024-03-25T04:00:53;9.63;;;8.60;;
19919;SDS011;10122;50.074;19.920;2024-03-25T04:03:18;9.10;;;8.20;;
19919;SDS011;10122;50.074;19.920;2024-03-25T04:05:44;8.82;;;8.02;;
19919;SDS011;10122;50.074;19.920;2024-03-25T04:08:10;9.23;;;8.32;;
19919;SDS011;10122;50.074;19.920;2024-03-25T04:10:36;10.18;;;8.25;;
19919;SDS011;10122;50.074;19.920;2024-03-25T04:13:05;11.48;;;8.60;;
19919;SDS011;10122;50.074;19.920;2024-03-25T04:15:33;13.25;;;8.77;;
19919;SDS011;10122;50.074;19.920;2024-03-25T04:17:59;11.65;;;8.05;;
19919;SDS011;10122;50.074;19.920;2024-03-25T04:20:26;8.95;;;8.05;;
19919;SDS011;10122;50.074;19.920;2024-03-25T04:22:53;11.05;;;8.10;;
19919;SDS011;10122;50.074;19.920;2024-03-25T04:25:19;9.05;;;8.15;;
19919;SDS011;10122;50.074;19.920;2024-03-25T04:27:45;8.38;;;7.55;;
19919;SDS011;10122;50.074;19.920;2024-03-25T04:30:11;11.57;;;7.57;;
19919;SDS011;10122;50.074;19.920;2024-03-25T04:32:37;8.70;;;7.40;;
19919;SDS011;10122;50.074;19.920;2024-03-25T04:35:05;9.40;;;7.68;;
19919;SDS011;10122;50.074;19.920;2024-03-25T04:37:34;10.07;;;7.80;;
19919;SDS011;10122;50.074;19.920;2024-03-25T04:40:01;8.60;;;7.85;;
19919;SDS011;10122;50.074;19.920;2024-03-25T04:42:27;10.27;;;7.65;;
19919;SDS011;10122;50.074;19.920;2024-03-25T04:44:53;8.18;;;7.38;;
19919;SDS011;10122;50.074;19.920;2024-03-25T04:47:19;9.75;;;7.78;;
19919;SDS011;10122;50.074;19.920;2024-03-25T04:49:45;9.27;;;8.00;;
19919;SDS011;10122;50.074;19.920;2024-03-25T04:52:11;7.90;;;7.10;;
19919;SDS011;10122;50.074;19.920;2024-03-25T04:54:42;8.75;;;7.80;;
19919;SDS011;10122;50.074;19.920;2024-03-25T04:57:10;8.38;;;7.57;;
19919;SDS011;10122;50.074;19.920;2024-03-25T04:59:36;7.65;;;7.05;;
19919;SDS011;10122;50.074;19.920;2024-03-25T05:02:02;9.07;;;7.38;;
19919;SDS011;10122;50.074;19.920;2024-03-25T05:04:27;7.75;;;6.95;;
19919;SDS011;10122;50.074;19.920;2024-03-25T05:06:53;7.90;;;6.82;;
19919;SDS011;10122;50.074;19.920;2024-03-25T05:09:19;7.60;;;7.00;;
19919;SDS011;10122;50.074;19.920;2024-03-25T05:11:45;7.80;;;7.10;;
19919;SDS011;10122;50.074;19.920;2024-03-25T05:14:11;9.95;;;7.65;;
19919;SDS011;10122;50.074;19.920;2024-03-25T05:16:36;8.27;;;7.18;;
19919;SDS011;10122;50.074;19.920;2024-03-25T05:19:02;7.90;;;7.13;;
19919;SDS011;10122;50.074;19.920;2024-03-25T05:21:29;9.73;;;7.32;;
19919;SDS011;10122;50.074;19.920;2024-03-25T05:23:55;8.05;;;7.45;;
19919;SDS011;10122;50.074;19.920;2024-03-25T05:26:21;8.55;;;7.65;;
19919;SDS011;10122;50.074;19.920;2024-03-25T05:28:51;9.32;;;7.95;;
19919;SDS011;10122;50.074;19.920;2024-03-25T05:31:20;8.38;;;7.63;;
19919;SDS011;10122;50.074;19.920;2024-03-25T05:33:46;8.00;;;7.35;;
19919;SDS011;10122;50.074;19.920;2024-03-25T05:36:12;8.10;;;7.40;;
19919;SDS011;10122;50.074;19.920;2024-03-25T05:38:38;7.97;;;7.30;;
19919;SDS011;10122;50.074;19.920;2024-03-25T05:41:04;8.02;;;7.30;;
19919;SDS011;10122;50.074;19.920;2024-03-25T05:43:30;7.95;;;7.25;;
19919;SDS011;10122;50.074;19.920;2024-03-25T05:45:56;7.38;;;6.88;;
19919;SDS011;10122;50.074;19.920;2024-03-25T05:48:24;7.85;;;7.00;;
19919;SDS011;10122;50.074;19.920;2024-03-25T05:51:00;7.10;;;6.60;;
19919;SDS011;10122;50.074;19.920;2024-03-25T05:53:26;7.45;;;6.85;;
19919;SDS011;10122;50.074;19.920;2024-03-25T05:55:52;7.28;;;6.70;;
19919;SDS011;10122;50.074;19.920;2024-03-25T05:58:18;7.32;;;6.80;;
19919;SDS011;10122;50.074;19.920;2024-03-25T06:00:46;7.88;;;7.07;;
19919;SDS011;10122;50.074;19.920;2024-03-25T06:03:12;7.63;;;7.03;;
19919;SDS011;10122;50.074;19.920;2024-03-25T06:05:38;7.25;;;6.60;;
19919;SDS011;10122;50.074;19.920;2024-03-25T06:08:04;7.20;;;6.68;;
19919;SDS011;10122;50.074;19.920;2024-03-25T06:10:34;7.05;;;6.55;;
19919;SDS011;10122;50.074;19.920;2024-03-25T06:13:01;7.40;;;6.80;;
19919;SDS011;10122;50.074;19.920;2024-03-25T06:15:26;6.88;;;6.47;;
19919;SDS011;10122;50.074;19.920;2024-03-25T06:17:52;7.28;;;6.78;;
19919;SDS011;10122;50.074;19.920;2024-03-25T06:20:18;7.35;;;6.85;;
19919;SDS011;10122;50.074;19.920;2024-03-25T06:22:43;7.78;;;6.75;;
19919;SDS011;10122;50.074;19.920;2024-03-25T06:25:09;7.40;;;6.80;;
19919;SDS011;10122;50.074;19.920;2024-03-25T06:27:34;7.53;;;6.82;;
19919;SDS011;10122;50.074;19.920;2024-03-25T06:30:00;7.65;;;7.05;;
19919;SDS011;10122;50.074;19.920;2024-03-25T06:32:49;7.43;;;6.93;;
19919;SDS011;10122;50.074;19.920;2024-03-25T06:35:33;7.40;;;6.80;;
19919;SDS011;10122;50.074;19.920;2024-03-25T06:38:00;7.30;;;6.85;;
19919;SDS011;10122;50.074;19.920;2024-03-25T06:40:26;7.10;;;6.60;;
19919;SDS011;10122;50.074;19.920;2024-03-25T06:42:51;7.28;;;6.68;;
19919;SDS011;10122;50.074;19.920;2024-03-25T06:45:17;7.85;;;7.25;;
19919;SDS011;10122;50.074;19.920;2024-03-25T06:47:42;7.47;;;6.97;;
19919;SDS011;10122;50.074;19.920;2024-03-25T06:50:08;8.40;;;7.78;;
19919;SDS011;10122;50.074;19.920;2024-03-25T06:52:35;8.18;;;7.45;;
19919;SDS011;10122;50.074;19.920;2024-03-25T06:55:00;8.38;;;7.57;;
19919;SDS011;10122;50.074;19.920;2024-03-25T06:57:26;8.15;;;7.55;;
19919;SDS011;10122;50.074;19.920;2024-03-25T06:59:52;8.05;;;7.45;;
19919;SDS011;10122;50.074;19.920;2024-03-25T07:02:17;8.07;;;7.38;;
19919;SDS011;10122;50.074;19.920;2024-03-25T07:04:43;9.15;;;7.65;;
19919;SDS011;10122;50.074;19.920;2024-03-25T07:07:08;8.38;;;7.60;;
19919;SDS011;10122;50.074;19.920;2024-03-25T07:09:34;8.23;;;7.53;;
19919;SDS011;10122;50.074;19.920;2024-03-25T07:12:00;8.80;;;8.00;;
19919;SDS011;10122;50.074;19.920;2024-03-25T07:14:25;8.35;;;7.63;;
19919;SDS011;10122;50.074;19.920;2024-03-25T07:16:51;8.30;;;7.50;;
19919;SDS011;10122;50.074;19.920;2024-03-25T07:19:17;7.80;;;7.20;;
19919;SDS011;10122;50.074;19.920;2024-03-25T07:21:42;8.00;;;7.30;;
19919;SDS011;10122;50.074;19.920;2024-03-25T07:24:08;7.82;;;7.25;;
19919;SDS011;10122;50.074;19.920;2024-03-25T07:26:34;7.68;;;7.00;;
19919;SDS011;10122;50.074;19.920;2024-03-25T07:28:59;8.05;;;7.38;;
19919;SDS011;10122;50.074;19.920;2024-03-25T07:31:25;8.32;;;7.63;;
19919;SDS011;10122;50.074;19.920;2024-03-25T07:33:50;8.25;;;7.55;;
19919;SDS011;10122;50.074;19.920;2024-03-25T07:36:16;8.05;;;7.28;;
19919;SDS011;10122;50.074;19.920;2024-03-25T07:38:43;8.40;;;7.70;;
19919;SDS011;10122;50.074;19.920;2024-03-25T07:41:09;7.97;;;7.38;;
19919;SDS011;10122;50.074;19.920;2024-03-25T07:43:35;7.97;;;7.38;;
19919;SDS011;10122;50.074;19.920;2024-03-25T07:46:00;9.13;;;8.23;;
19919;SDS011;10122;50.074;19.920;2024-03-25T07:48:26;7.50;;;7.00;;
19919;SDS011;10122;50.074;19.920;2024-03-25T07:50:51;8.20;;;7.60;;
19919;SDS011;10122;50.074;19.920;2024-03-25T07:53:17;8.57;;;7.78;;
19919;SDS011;10122;50.074;19.920;2024-03-25T07:55:43;8.10;;;7.43;;
19919;SDS011;10122;50.074;19.920;2024-03-25T07:58:09;7.75;;;7.05;;
19919;SDS011;10122;50.074;19.920;2024-03-25T08:00:34;8.48;;;7.60;;
19919;SDS011;10122;50.074;19.920;2024-03-25T08:03:00;8.85;;;8.00;;
19919;SDS011;10122;50.074;19.920;2024-03-25T08:05:26;9.52;;;7.80;;
19919;SDS011;10122;50.074;19.920;2024-03-25T08:07:54;7.47;;;6.88;;
19919;SDS011;10122;50.074;19.920;2024-03-25T08:10:20;7.53;;;6.90;;
19919;SDS011;10122;50.074;19.920;2024-03-25T08:12:45;7.50;;;6.93;;
19919;SDS011;10122;50.074;19.920;2024-03-25T08:15:11;8.15;;;7.45;;
19919;SDS011;10122;50.074;19.920;2024-03-25T08:17:38;7.40;;;6.78;;
19919;SDS011;10122;50.074;19.920;2024-03-25T08:20:04;7.75;;;7.00;;
19919;SDS011;10122;50.074;19.920;2024-03-25T08:22:30;8.32;;;7.68;;
19919;SDS011;10122;50.074;19.920;2024-03-25T08:24:56;8.50;;;7.70;;
19919;SDS011;10122;50.074;19.920;2024-03-25T08:27:21;8.40;;;7.70;;
19919;SDS011;10122;50.074;19.920;2024-03-25T08:29:47;7.72;;;7.13;;
19919;SDS011;10122;50.074;19.920;2024-03-25T08:32:16;8.35;;;7.60;;
19919;SDS011;10122;50.074;19.920;2024-03-25T08:34:41;8.48;;;7.70;;
19919;SDS011;10122;50.074;19.920;2024-03-25T08:37:07;9.25;;;7.70;;
19919;SDS011;10122;50.074;19.920;2024-03-25T08:39:33;7.75;;;7.15;;
19919;SDS011;10122;50.074;19.920;2024-03-25T08:41:58;8.00;;;7.30;;
19919;SDS011;10122;50.074;19.920;2024-03-25T08:44:24;8.80;;;7.18;;
19919;SDS011;10122;50.074;19.920;2024-03-25T08:46:50;7.75;;;7.15;;
19919;SDS011;10122;50.074;19.920;2024-03-25T08:49:16;7.85;;;7.10;;
19919;SDS011;10122;50.074;19.920;2024-03-25T08:51:41;7.65;;;6.95;;
19919;SDS011;10122;50.074;19.920;2024-03-25T08:54:07;7.82;;;7.18;;
19919;SDS011;10122;50.074;19.920;2024-03-25T08:56:33;7.40;;;6.80;;
19919;SDS011;10122;50.074;19.920;2024-03-25T08:58:59;7.25;;;6.70;;
19919;SDS011;10122;50.074;19.920;2024-03-25T09:01:25;7.80;;;7.15;;
19919;SDS011;10122;50.074;19.920;2024-03-25T09:03:51;8.10;;;7.32;;
19919;SDS011;10122;50.074;19.920;2024-03-25T09:06:17;7.80;;;7.20;;
19919;SDS011;10122;50.074;19.920;2024-03-25T09:08:42;8.13;;;7.43;;
19919;SDS011;10122;50.074;19.920;2024-03-25T09:11:26;7.93;;;7.22;;
19919;SDS011;10122;50.074;19.920;2024-03-25T09:13:52;7.85;;;7.25;;
19919;SDS011;10122;50.074;19.920;2024-03-25T09:16:18;8.10;;;7.50;;
19919;SDS011;10122;50.074;19.920;2024-03-25T09:18:44;8.15;;;7.35;;
19919;SDS011;10122;50.074;19.920;2024-03-25T09:21:10;8.13;;;7.43;;
19919;SDS011;10122;50.074;19.920;2024-03-25T09:23:36;8.30;;;7.50;;
19919;SDS011;10122;50.074;19.920;2024-03-25T09:26:02;7.88;;;7.15;;
19919;SDS011;10122;50.074;19.920;2024-03-25T09:28:28;8.02;;;7.22;;
19919;SDS011;10122;50.074;19.920;2024-03-25T09:30:53;7.68;;;6.97;;
19919;SDS011;10122;50.074;19.920;2024-03-25T09:33:19;7.53;;;6.78;;
19919;SDS011;10122;50.074;19.920;2024-03-25T09:35:44;7.93;;;7.22;;
19919;SDS011;10122;50.074;19.920;2024-03-25T09:38:10;8.65;;;7.18;;
19919;SDS011;10122;50.074;19.920;2024-03-25T09:40:36;7.97;;;7.15;;
19919;SDS011;10122;50.074;19.920;2024-03-25T09:43:06;8.10;;;7.30;;
19919;SDS011;10122;50.074;19.920;2024-03-25T09:45:42;9.25;;;7.50;;
19919;SDS011;10122;50.074;19.920;2024-03-25T09:48:13;7.20;;;6.70;;
19919;SDS011;10122;50.074;19.920;2024-03-25T09:50:41;7.28;;;6.70;;
19919;SDS011;10122;50.074;19.920;2024-03-25T09:53:09;8.07;;;7.28;;
19919;SDS011;10122;50.074;19.920;2024-03-25T09:55:34;9.20;;;7.32;;
19919;SDS011;10122;50.074;19.920;2024-03-25T09:58:02;8.05;;;7.25;;
19919;SDS011;10122;50.074;19.920;2024-03-25T10:00:28;7.57;;;6.88;;
19919;SDS011;10122;50.074;19.920;2024-03-25T10:02:55;6.20;;;5.80;;
19919;SDS011;10122;50.074;19.920;2024-03-25T10:05:20;7.20;;;6.60;;
19919;SDS011;10122;50.074;19.920;2024-03-25T10:07:46;7.70;;;6.93;;
19919;SDS011;10122;50.074;19.920;2024-03-25T10:10:12;8.70;;;7.38;;
19919;SDS011;10122;50.074;19.920;2024-03-25T10:12:38;7.47;;;6.97;;
19919;SDS011;10122;50.074;19.920;2024-03-25T10:15:06;7.35;;;6.85;;
19919;SDS011;10122;50.074;19.920;2024-03-25T10:17:32;7.78;;;7.18;;
19919;SDS011;10122;50.074;19.920;2024-03-25T10:19:57;8.25;;;7.00;;
19919;SDS011;10122;50.074;19.920;2024-03-25T10:22:23;8.50;;;7.80;;
19919;SDS011;10122;50.074;19.920;2024-03-25T10:24:49;8.23;;;7.57;;
19919;SDS011;10122;50.074;19.920;2024-03-25T10:27:19;8.07;;;7.47;;
19919;SDS011;10122;50.074;19.920;2024-03-25T10:29:51;7.30;;;6.70;;
19919;SDS011;10122;50.074;19.920;2024-03-25T10:32:20;8.27;;;7.60;;
19919;SDS011;10122;50.074;19.920;2024-03-25T10:34:46;7.85;;;7.22;;
19919;SDS011;10122;50.074;19.920;2024-03-25T10:37:12;7.55;;;6.95;;
19919;SDS011;10122;50.074;19.920;2024-03-25T10:39:50;7.70;;;7.10;;
19919;SDS011;10122;50.074;19.920;2024-03-25T10:42:20;7.55;;;6.95;;
19919;SDS011;10122;50.074;19.920;2024-03-25T10:44:49;7.30;;;6.80;;
19919;SDS011;10122;50.074;19.920;2024-03-25T10:47:19;7.65;;;7.15;;
19919;SDS011;10122;50.074;19.920;2024-03-25T10:49:48;7.53;;;6.93;;
19919;SDS011;10122;50.074;19.920;2024-03-25T10:52:15;7.35;;;6.75;;
19919;SDS011;10122;50.074;19.920;2024-03-25T10:54:43;7.15;;;6.65;;
19919;SDS011;10122;50.074;19.920;2024-03-25T10:57:11;7.22;;;6.63;;
19919;SDS011;10122;50.074;19.920;2024-03-25T10:59:39;7.60;;;7.00;;
19919;SDS011;10122;50.074;19.920;2024-03-25T11:02:07;7.20;;;6.70;;
19919;SDS011;10122;50.074;19.920;2024-03-25T11:04:33;7.65;;;6.97;;
19919;SDS011;10122;50.074;19.920;2024-03-25T11:07:07;7.60;;;7.00;;
19919;SDS011;10122;50.074;19.920;2024-03-25T11:09:33;7.60;;;6.90;;
19919;SDS011;10122;50.074;19.920;2024-03-25T11:11:58;6.80;;;6.40;;
19919;SDS011;10122;50.074;19.920;2024-03-25T11:14:25;6.57;;;6.15;;
19919;SDS011;10122;50.074;19.920;2024-03-25T11:16:54;6.55;;;6.05;;
19919;SDS011;10122;50.074;19.920;2024-03-25T11:19:21;7.00;;;6.50;;
19919;SDS011;10122;50.074;19.920;2024-03-25T11:21:51;6.30;;;6.00;;
19919;SDS011;10122;50.074;19.920;2024-03-25T11:24:29;6.00;;;5.70;;
19919;SDS011;10122;50.074;19.920;2024-03-25T11:26:56;6.53;;;6.10;;
19919;SDS011;10122;50.074;19.920;2024-03-25T11:29:21;7.30;;;6.80;;
19919;SDS011;10122;50.074;19.920;2024-03-25T11:31:50;7.40;;;6.82;;
19919;SDS011;10122;50.074;19.920;2024-03-25T11:34:18;7.55;;;6.90;;
19919;SDS011;10122;50.074;19.920;2024-03-25T11:36:45;7.15;;;6.65;;
19919;SDS011;10122;50.074;19.920;2024-03-25T11:39:12;6.95;;;6.45;;
19919;SDS011;10122;50.074;19.920;2024-03-25T11:41:44;7.30;;;6.78;;
19919;SDS011;10122;50.074;19.920;2024-03-25T11:44:10;7.13;;;6.63;;
19919;SDS011;10122;50.074;19.920;2024-03-25T11:46:40;7.00;;;6.50;;
19919;SDS011;10122;50.074;19.920;2024-03-25T11:49:06;7.22;;;6.72;;
19919;SDS011;10122;50.074;19.920;2024-03-25T11:51:33;7.03;;;6.63;;
19919;SDS011;10122;50.074;19.920;2024-03-25T11:53:59;6.80;;;6.30;;
19919;SDS011;10122;50.074;19.920;2024-03-25T11:56:29;7.07;;;6.47;;
19919;SDS011;10122;50.074;19.920;2024-03-25T11:58:59;7.00;;;6.50;;
19919;SDS011;10122;50.074;19.920;2024-03-25T12:01:25;6.53;;;6.10;;
19919;SDS011;10122;50.074;19.920;2024-03-25T12:03:51;7.30;;;6.75;;
19919;SDS011;10122;50.074;19.920;2024-03-25T12:06:17;6.75;;;6.30;;
19919;SDS011;10122;50.074;19.920;2024-03-25T12:08:47;6.90;;;6.07;;
19919;SDS011;10122;50.074;19.920;2024-03-25T12:11:31;6.90;;;6.40;;
19919;SDS011;10122;50.074;19.920;2024-03-25T12:13:58;7.30;;;6.80;;
19919;SDS011;10122;50.074;19.920;2024-03-25T12:16:25;7.43;;;6.82;;
19919;SDS011;10122;50.074;19.920;2024-03-25T12:18:51;7.30;;;6.80;;
19919;SDS011;10122;50.074;19.920;2024-03-25T12:21:18;7.03;;;6.53;;
19919;SDS011;10122;50.074;19.920;2024-03-25T12:23:45;7.65;;;7.05;;
19919;SDS011;10122;50.074;19.920;2024-03-25T12:26:12;7.68;;;7.00;;
19919;SDS011;10122;50.074;19.920;2024-03-25T12:28:39;7.15;;;6.40;;
19919;SDS011;10122;50.074;19.920;2024-03-25T12:31:08;7.50;;;6.70;;
19919;SDS011;10122;50.074;19.920;2024-03-25T12:33:40;7.40;;;6.80;;
19919;SDS011;10122;50.074;19.920;2024-03-25T12:36:06;7.28;;;6.60;;
19919;SDS011;10122;50.074;19.920;2024-03-25T12:38:32;7.90;;;7.10;;
19919;SDS011;10122;50.074;19.920;2024-03-25T12:41:04;8.98;;;6.95;;
19919;SDS011;10122;50.074;19.920;2024-03-25T12:43:31;7.00;;;6.50;;
19919;SDS011;10122;50.074;19.920;2024-03-25T12:45:58;7.03;;;6.43;;
19919;SDS011;10122;50.074;19.920;2024-03-25T12:48:24;7.20;;;6.50;;
19919;SDS011;10122;50.074;19.920;2024-03-25T12:50:50;10.68;;;6.70;;
19919;SDS011;10122;50.074;19.920;2024-03-25T12:53:17;7.25;;;6.75;;
19919;SDS011;10122;50.074;19.920;2024-03-25T12:55:43;7.40;;;6.80;;
19919;SDS011;10122;50.074;19.920;2024-03-25T12:58:09;6.93;;;6.43;;
19919;SDS011;10122;50.074;19.920;2024-03-25T13:00:35;6.63;;;6.13;;
19919;SDS011;10122;50.074;19.920;2024-03-25T13:03:01;8.43;;;6.85;;
19919;SDS011;10122;50.074;19.920;2024-03-25T13:05:27;7.20;;;6.60;;
19919;SDS011;10122;50.074;19.920;2024-03-25T13:07:53;7.10;;;6.50;;
19919;SDS011;10122;50.074;19.920;2024-03-25T13:10:19;6.75;;;6.35;;
19919;SDS011;10122;50.074;19.920;2024-03-25T13:12:45;6.97;;;6.47;;
19919;SDS011;10122;50.074;19.920;2024-03-25T13:15:11;6.75;;;6.35;;
19919;SDS011;10122;50.074;19.920;2024-03-25T13:17:37;6.70;;;6.20;;
19919;SDS011;10122;50.074;19.920;2024-03-25T13:20:02;8.55;;;6.90;;
19919;SDS011;10122;50.074;19.920;2024-03-25T13:22:29;6.80;;;6.30;;
19919;SDS011;10122;50.074;19.920;2024-03-25T13:24:57;9.45;;;7.03;;
19919;SDS011;10122;50.074;19.920;2024-03-25T13:27:26;6.75;;;6.35;;
19919;SDS011;10122;50.074;19.920;2024-03-25T13:29:51;6.95;;;6.47;;
19919;SDS011;10122;50.074;19.920;2024-03-25T13:32:20;7.32;;;6.72;;
19919;SDS011;10122;50.074;19.920;2024-03-25T13:34:46;7.15;;;6.63;;
19919;SDS011;10122;50.074;19.920;2024-03-25T13:37:13;7.00;;;6.50;;
19919;SDS011;10122;50.074;19.920;2024-03-25T13:39:40;6.93;;;6.45;;
19919;SDS011;10122;50.074;19.920;2024-03-25T13:42:05;7.22;;;6.72;;
19919;SDS011;10122;50.074;19.920;2024-03-25T13:44:31;7.50;;;6.80;;
19919;SDS011;10122;50.074;19.920;2024-03-25T13:46:57;7.43;;;6.75;;
19919;SDS011;10122;50.074;19.920;2024-03-25T13:49:22;7.63;;;7.03;;
19919;SDS011;10122;50.074;19.920;2024-03-25T13:51:57;7.38;;;6.78;;
19919;SDS011;10122;50.074;19.920;2024-03-25T13:54:28;7.10;;;6.60;;
19919;SDS011;10122;50.074;19.920;2024-03-25T13:56:55;7.20;;;6.60;;
19919;SDS011;10122;50.074;19.920;2024-03-25T13:59:24;7.03;;;6.53;;
19919;SDS011;10122;50.074;19.920;2024-03-25T14:01:50;6.93;;;6.43;;
19919;SDS011;10122;50.074;19.920;2024-03-25T14:04:16;7.10;;;6.60;;
19919;SDS011;10122;50.074;19.920;2024-03-25T14:06:43;6.93;;;6.32;;
19919;SDS011;10122;50.074;19.920;2024-03-25T14:09:10;7.03;;;6.32;;
19919;SDS011;10122;50.074;19.920;2024-03-25T14:11:56;6.93;;;6.30;;
19919;SDS011;10122;50.074;19.920;2024-03-25T14:14:22;6.95;;;6.32;;
19919;SDS011;10122;50.074;19.920;2024-03-25T14:16:48;6.53;;;6.13;;
19919;SDS011;10122;50.074;19.920;2024-03-25T14:19:13;7.03;;;6.53;;
19919;SDS011;10122;50.074;19.920;2024-03-25T14:21:39;6.97;;;6.40;;
19919;SDS011;10122;50.074;19.920;2024-03-25T14:24:05;7.30;;;6.70;;
19919;SDS011;10122;50.074;19.920;2024-03-25T14:26:31;6.75;;;6.25;;
19919;SDS011;10122;50.074;19.920;2024-03-25T14:28:57;6.95;;;6.45;;
19919;SDS011;10122;50.074;19.920;2024-03-25T14:31:24;7.00;;;6.50;;
19919;SDS011;10122;50.074;19.920;2024-03-25T14:33:50;7.50;;;6.80;;